createdAt,value
2022-07-29T00:02:12.752Z,2.33
2022-07-29T00:04:41.089Z,3.33
2022-07-29T00:07:09.397Z,2.60
2022-07-29T00:09:43.044Z,2.90
2022-07-29T00:12:25.768Z,2.90
2022-07-29T00:14:55.556Z,3.07
2022-07-29T00:17:25.225Z,2.90
2022-07-29T00:19:53.516Z,2.90
2022-07-29T00:22:22.004Z,3.13
2022-07-29T00:24:50.652Z,3.17
2022-07-29T00:27:18.994Z,3.30
2022-07-29T00:29:47.381Z,2.63
2022-07-29T00:32:15.794Z,1.80
2022-07-29T00:35:03.001Z,2.77
2022-07-29T00:37:31.300Z,1.90
2022-07-29T00:39:59.581Z,2.57
2022-07-29T00:42:28.433Z,2.47
2022-07-29T00:44:56.704Z,2.53
2022-07-29T00:47:25.074Z,2.10
2022-07-29T00:49:54.769Z,2.47
2022-07-29T00:52:23.114Z,1.67
2022-07-29T00:54:51.438Z,2.10
2022-07-29T00:57:19.767Z,3.27
2022-07-29T00:59:48.054Z,2.73
2022-07-29T01:02:16.416Z,2.10
2022-07-29T01:04:44.800Z,1.67
2022-07-29T01:07:14.649Z,2.60
2022-07-29T01:09:46.883Z,1.60
2022-07-29T01:12:17.915Z,2.97
2022-07-29T01:14:47.478Z,2.47
2022-07-29T01:17:18.675Z,2.33
2022-07-29T01:19:53.666Z,2.27
2022-07-29T01:22:28.565Z,2.43
2022-07-29T01:25:08.242Z,2.23
2022-07-29T01:27:44.144Z,2.13
2022-07-29T01:30:15.666Z,1.93
2022-07-29T01:32:45.629Z,2.13
2022-07-29T01:35:17.466Z,2.13
2022-07-29T01:37:46.841Z,1.83
2022-07-29T01:40:22.155Z,2.70
2022-07-29T01:42:53.006Z,2.73
2022-07-29T01:45:24.422Z,2.03
2022-07-29T01:47:56.805Z,1.73
2022-07-29T01:50:29.483Z,2.10
2022-07-29T01:52:59.359Z,2.90
2022-07-29T01:55:29.314Z,2.17
2022-07-29T01:57:59.016Z,1.53
2022-07-29T02:00:29.266Z,2.03
2022-07-29T02:02:58.967Z,2.00
2022-07-29T02:05:30.038Z,2.10
2022-07-29T02:08:00.730Z,2.00
2022-07-29T02:10:31.458Z,1.70
2022-07-29T02:13:00.098Z,2.23
2022-07-29T02:15:31.435Z,2.10
2022-07-29T02:18:02.685Z,2.10
2022-07-29T02:20:31.465Z,2.20
2022-07-29T02:23:00.114Z,1.93
2022-07-29T02:25:37.412Z,2.70
2022-07-29T02:28:08.504Z,2.30
2022-07-29T02:30:39.456Z,1.80
2022-07-29T02:33:08.482Z,2.03
2022-07-29T02:35:37.323Z,2.40
2022-07-29T02:38:23.583Z,1.90
2022-07-29T02:40:53.182Z,2.50
2022-07-29T02:43:22.407Z,2.10
2022-07-29T02:45:54.466Z,2.20
2022-07-29T02:48:25.409Z,2.00
2022-07-29T02:50:57.490Z,2.33
2022-07-29T02:53:27.348Z,2.07
2022-07-29T02:55:58.281Z,2.10
2022-07-29T02:58:29.491Z,2.13
2022-07-29T03:01:01.057Z,2.40
2022-07-29T03:03:32.561Z,2.37
2022-07-29T03:06:02.693Z,2.00
2022-07-29T03:08:31.059Z,2.07
2022-07-29T03:10:59.800Z,2.87
2022-07-29T03:13:28.429Z,2.37
2022-07-29T03:15:56.894Z,2.73
2022-07-29T03:18:26.724Z,2.27
2022-07-29T03:20:55.310Z,2.33
2022-07-29T03:23:25.021Z,2.10
2022-07-29T03:25:53.482Z,2.90
2022-07-29T03:28:23.570Z,2.00
2022-07-29T03:30:55.474Z,2.50
2022-07-29T03:33:23.792Z,2.00
2022-07-29T03:35:53.455Z,1.93
2022-07-29T03:38:22.063Z,2.73
2022-07-29T03:40:52.495Z,2.87
2022-07-29T03:43:21.533Z,2.90
2022-07-29T03:45:52.269Z,2.20
2022-07-29T03:48:22.422Z,1.90
2022-07-29T03:50:51.430Z,2.67
2022-07-29T03:53:21.135Z,3.43
2022-07-29T03:55:51.059Z,3.80
2022-07-29T03:58:19.929Z,2.80
2022-07-29T04:00:49.221Z,3.47
2022-07-29T04:03:17.895Z,1.80
2022-07-29T04:05:46.206Z,2.43
2022-07-29T04:08:14.490Z,2.10
2022-07-29T04:10:44.186Z,3.30
2022-07-29T04:13:12.466Z,3.10
2022-07-29T04:15:40.831Z,2.90
2022-07-29T04:18:09.158Z,3.27
2022-07-29T04:20:37.459Z,3.20
2022-07-29T04:23:05.723Z,3.20
2022-07-29T04:25:34.061Z,3.90
2022-07-29T04:28:03.834Z,3.83
2022-07-29T04:30:32.761Z,2.90
2022-07-29T04:33:02.003Z,3.07
2022-07-29T04:35:30.521Z,2.30
2022-07-29T04:38:06.897Z,3.73
2022-07-29T04:40:35.836Z,3.00
2022-07-29T04:43:08.373Z,2.70
2022-07-29T04:45:36.913Z,2.97
2022-07-29T04:48:05.361Z,3.53
2022-07-29T04:50:33.835Z,3.03
2022-07-29T04:53:02.206Z,3.37
2022-07-29T04:55:30.825Z,3.03
2022-07-29T04:57:59.148Z,3.40
2022-07-29T05:00:33.281Z,3.07
2022-07-29T05:03:02.144Z,3.67
2022-07-29T05:05:30.453Z,4.03
2022-07-29T05:07:58.760Z,4.00
2022-07-29T05:10:27.195Z,3.53
2022-07-29T05:12:55.449Z,3.00
2022-07-29T05:15:23.767Z,3.47
2022-07-29T05:17:53.418Z,3.57
2022-07-29T05:20:26.957Z,4.10
2022-07-29T05:22:55.294Z,3.23
2022-07-29T05:25:23.926Z,4.00
2022-07-29T05:28:12.194Z,3.77
2022-07-29T05:30:40.620Z,4.23
2022-07-29T05:33:34.272Z,4.07
2022-07-29T05:36:00.627Z,3.90
2022-07-29T05:38:29.399Z,4.20
2022-07-29T05:40:59.577Z,3.97
2022-07-29T05:43:27.935Z,3.80
2022-07-29T05:45:56.314Z,3.23
2022-07-29T05:48:26.234Z,4.50
2022-07-29T05:50:54.563Z,4.10
2022-07-29T05:53:22.961Z,4.40
2022-07-29T05:55:51.696Z,4.00
2022-07-29T05:58:20.029Z,3.80
2022-07-29T06:00:48.384Z,4.80
2022-07-29T06:03:16.766Z,4.10
2022-07-29T06:05:46.532Z,3.50
2022-07-29T06:08:14.908Z,4.37
2022-07-29T06:10:43.223Z,5.80
2022-07-29T06:13:11.575Z,3.73
2022-07-29T06:15:40.036Z,5.00
2022-07-29T06:18:10.155Z,3.60
2022-07-29T06:20:39.368Z,3.70
2022-07-29T06:23:09.100Z,4.40
2022-07-29T06:25:37.690Z,3.67
2022-07-29T06:28:07.384Z,4.30
2022-07-29T06:30:35.701Z,3.50
2022-07-29T06:33:04.110Z,3.67
2022-07-29T06:35:38.974Z,3.90
2022-07-29T06:38:31.140Z,4.10
2022-07-29T06:41:06.125Z,6.10
2022-07-29T06:43:36.647Z,4.10
2022-07-29T06:46:20.186Z,4.53
2022-07-29T06:48:49.741Z,3.20
2022-07-29T06:51:23.347Z,3.10
2022-07-29T06:53:59.958Z,4.30
2022-07-29T06:56:39.453Z,3.53
2022-07-29T06:59:09.153Z,3.20
2022-07-29T07:01:38.046Z,3.80
2022-07-29T07:04:06.507Z,3.40
2022-07-29T07:06:34.892Z,3.40
2022-07-29T07:09:04.921Z,5.17
2022-07-29T07:11:33.485Z,3.33
2022-07-29T07:14:03.895Z,4.80
2022-07-29T07:16:33.133Z,3.97
2022-07-29T07:19:01.679Z,3.33
2022-07-29T07:21:30.495Z,3.17
2022-07-29T07:23:59.192Z,3.50
2022-07-29T07:26:29.012Z,3.57
2022-07-29T07:28:57.397Z,3.37
2022-07-29T07:31:25.824Z,3.80
2022-07-29T07:33:54.366Z,3.73
2022-07-29T07:36:22.890Z,3.50
2022-07-29T07:38:51.250Z,4.07
2022-07-29T07:41:19.751Z,3.80
2022-07-29T07:43:49.428Z,3.33
2022-07-29T07:46:18.169Z,3.90
2022-07-29T07:48:46.523Z,3.37
2022-07-29T07:51:15.192Z,2.93
2022-07-29T07:53:43.492Z,4.00
2022-07-29T07:56:12.846Z,3.30
2022-07-29T07:58:41.506Z,3.17
2022-07-29T08:01:13.976Z,3.87
2022-07-29T08:03:42.311Z,3.30
2022-07-29T08:06:10.612Z,3.10
2022-07-29T08:08:39.910Z,2.27
2022-07-29T08:11:09.870Z,2.73
2022-07-29T08:13:40.318Z,3.50
2022-07-29T08:16:16.449Z,3.67
2022-07-29T08:18:47.995Z,3.00
2022-07-29T08:21:16.888Z,3.03
2022-07-29T08:23:58.979Z,3.10
2022-07-29T08:26:31.310Z,3.17
2022-07-29T08:28:59.645Z,3.97
2022-07-29T08:31:28.058Z,4.30
2022-07-29T08:34:00.705Z,2.77
2022-07-29T08:36:29.046Z,3.93
2022-07-29T08:38:57.358Z,2.20
2022-07-29T08:41:25.754Z,2.93
2022-07-29T08:43:54.598Z,3.20
2022-07-29T08:46:23.578Z,3.57
2022-07-29T08:48:52.030Z,4.17
2022-07-29T08:51:24.822Z,3.40
2022-07-29T08:53:53.382Z,2.90
2022-07-29T08:56:22.120Z,3.20
2022-07-29T08:58:53.429Z,2.60
2022-07-29T09:01:35.946Z,2.87
2022-07-29T09:04:06.474Z,2.87
2022-07-29T09:06:39.547Z,4.10
2022-07-29T09:09:08.271Z,2.40
2022-07-29T09:11:36.847Z,2.53
2022-07-29T09:14:05.191Z,2.90
2022-07-29T09:16:53.245Z,3.43
2022-07-29T09:19:30.460Z,2.67
2022-07-29T09:22:03.454Z,3.00
2022-07-29T09:24:42.913Z,3.00
2022-07-29T09:27:13.289Z,3.47
2022-07-29T09:29:42.053Z,3.67
2022-07-29T09:32:12.737Z,2.50
2022-07-29T09:34:41.031Z,2.97
2022-07-29T09:37:10.825Z,4.50
2022-07-29T09:39:46.417Z,2.10
2022-07-29T09:42:16.710Z,2.40
2022-07-29T09:44:45.989Z,2.50
2022-07-29T09:47:14.474Z,2.73
2022-07-29T09:49:56.041Z,2.87
2022-07-29T09:52:25.689Z,3.30
2022-07-29T09:54:54.989Z,3.70
2022-07-29T09:57:30.892Z,2.70
2022-07-29T10:00:00.353Z,2.93
2022-07-29T10:02:32.672Z,4.50
2022-07-29T10:05:01.770Z,3.20
2022-07-29T10:07:45.221Z,2.90
2022-07-29T10:10:13.737Z,3.60
2022-07-29T10:12:51.499Z,4.50
2022-07-29T10:15:20.297Z,4.63
2022-07-29T10:17:49.068Z,2.80
2022-07-29T10:20:18.152Z,3.53
2022-07-29T10:22:53.321Z,2.73
2022-07-29T10:25:22.826Z,4.03
2022-07-29T10:27:52.163Z,3.70
2022-07-29T10:30:21.363Z,4.00
2022-07-29T10:32:57.760Z,5.10
2022-07-29T10:35:35.355Z,3.40
2022-07-29T10:38:24.792Z,4.33
2022-07-29T10:41:19.458Z,3.37
2022-07-29T10:46:38.642Z,3.27
2022-07-29T10:49:11.251Z,2.80
2022-07-29T10:51:57.444Z,3.60
2022-07-29T10:54:53.627Z,3.00
2022-07-29T10:57:53.569Z,3.53
2022-07-29T11:00:32.127Z,4.63
2022-07-29T11:03:01.118Z,2.73
2022-07-29T11:05:53.271Z,4.53
2022-07-29T11:08:26.533Z,4.37
2022-07-29T11:11:12.525Z,4.40
2022-07-29T11:13:55.716Z,5.50
2022-07-29T11:16:26.586Z,3.70
2022-07-29T11:19:13.942Z,3.20
2022-07-29T11:21:53.848Z,3.70
2022-07-29T11:24:29.351Z,3.33
2022-07-29T11:27:13.187Z,2.93
2022-07-29T11:29:50.184Z,3.47
2022-07-29T11:32:22.718Z,3.90
2022-07-29T11:34:52.765Z,4.27
2022-07-29T11:37:28.248Z,2.10
2022-07-29T11:40:16.437Z,5.17
2022-07-29T11:42:47.545Z,4.23
2022-07-29T11:48:31.919Z,3.57
2022-07-29T11:50:59.297Z,3.60
2022-07-29T11:56:17.367Z,3.13
2022-07-29T11:58:45.674Z,3.20
2022-07-29T12:01:19.711Z,3.97
2022-07-29T12:04:04.787Z,3.63
2022-07-29T12:06:35.562Z,2.60
2022-07-29T12:07:03.925Z,2.97
2022-07-29T12:09:11.215Z,3.37
2022-07-29T12:11:45.060Z,4.20
2022-07-29T12:14:27.853Z,3.77
2022-07-29T12:16:57.972Z,3.20
2022-07-29T12:19:28.125Z,2.83
2022-07-29T12:21:59.665Z,4.57
2022-07-29T12:24:29.826Z,3.40
2022-07-29T12:26:59.171Z,3.30
2022-07-29T12:29:33.889Z,3.60
2022-07-29T12:32:14.558Z,3.40
2022-07-29T12:34:43.461Z,3.20
2022-07-29T12:37:11.994Z,3.10
2022-07-29T12:39:40.458Z,3.13
2022-07-29T12:42:13.986Z,3.03
2022-07-29T12:44:47.331Z,3.47
2022-07-29T12:47:19.036Z,3.20
2022-07-29T12:49:47.895Z,3.00
2022-07-29T12:52:29.739Z,2.83
2022-07-29T12:54:58.297Z,4.37
2022-07-29T12:57:26.878Z,4.33
2022-07-29T13:00:02.069Z,3.83
2022-07-29T13:02:31.777Z,5.17
2022-07-29T13:05:00.909Z,3.00
2022-07-29T13:07:55.549Z,3.80
2022-07-29T13:10:19.691Z,3.50
2022-07-29T13:13:05.713Z,4.40
2022-07-29T13:15:34.493Z,3.67
2022-07-29T13:18:04.769Z,3.30
2022-07-29T13:20:33.106Z,3.70
2022-07-29T13:23:02.035Z,3.27
2022-07-29T13:25:31.053Z,3.57
2022-07-29T13:27:59.879Z,3.93
2022-07-29T13:30:30.230Z,4.90
2022-07-29T13:33:04.124Z,4.67
2022-07-29T13:35:32.794Z,3.80
2022-07-29T13:38:01.165Z,4.00
2022-07-29T13:40:30.145Z,3.87
2022-07-29T13:42:58.550Z,3.67
2022-07-29T13:45:29.316Z,3.60
2022-07-29T13:48:05.103Z,4.70
2022-07-29T13:50:33.501Z,3.87
2022-07-29T13:53:01.815Z,3.40
2022-07-29T13:55:30.416Z,4.10
2022-07-29T13:57:58.711Z,4.10
2022-07-29T14:00:27.285Z,3.53
2022-07-29T14:02:55.549Z,3.63
2022-07-29T14:05:25.242Z,3.60
2022-07-29T14:07:53.462Z,4.07
2022-07-29T14:10:21.877Z,3.63
2022-07-29T14:12:50.165Z,3.30
2022-07-29T14:15:18.412Z,3.80
2022-07-29T14:17:46.651Z,3.60
2022-07-29T14:20:16.509Z,3.53
2022-07-29T14:22:46.844Z,2.63
2022-07-29T14:25:15.801Z,3.60
2022-07-29T14:27:44.578Z,3.47
2022-07-29T14:30:14.248Z,3.10
2022-07-29T14:32:42.567Z,3.20
2022-07-29T14:35:11.206Z,3.13
2022-07-29T14:37:40.828Z,2.93
2022-07-29T14:40:11.280Z,3.10
2022-07-29T14:42:39.908Z,2.90
2022-07-29T14:45:09.082Z,3.20
2022-07-29T14:47:37.414Z,3.33
2022-07-29T14:50:06.112Z,3.07
2022-07-29T14:52:34.568Z,3.23
2022-07-29T14:55:02.863Z,3.30
2022-07-29T14:57:33.684Z,3.13
2022-07-29T15:00:01.949Z,3.10
2022-07-29T15:02:52.153Z,3.53
2022-07-29T15:05:18.522Z,3.27
2022-07-29T15:07:46.822Z,3.27
2022-07-29T15:10:15.595Z,3.70
2022-07-29T15:12:45.335Z,3.43
2022-07-29T15:15:13.729Z,3.53
2022-07-29T15:17:43.346Z,3.27
2022-07-29T15:20:12.736Z,3.80
2022-07-29T15:22:42.279Z,3.20
2022-07-29T15:25:12.135Z,2.97
2022-07-29T15:27:40.517Z,3.70
2022-07-29T15:30:11.407Z,4.03
2022-07-29T15:32:58.973Z,4.10
2022-07-29T15:35:27.269Z,3.70
2022-07-29T15:37:55.675Z,4.13
2022-07-29T15:40:24.244Z,3.37
2022-07-29T15:42:52.561Z,3.80
2022-07-29T15:45:22.234Z,3.47
2022-07-29T15:47:50.820Z,3.80
2022-07-29T15:50:20.095Z,3.43
2022-07-29T15:52:48.482Z,3.57
2022-07-29T15:55:16.808Z,3.97
2022-07-29T15:57:45.492Z,3.40
2022-07-29T16:00:14.815Z,3.23
2022-07-29T16:02:44.637Z,3.50
2022-07-29T16:05:12.998Z,3.50
2022-07-29T16:07:41.349Z,3.80
2022-07-29T16:10:09.940Z,3.50
2022-07-29T16:12:39.185Z,3.83
2022-07-29T16:15:10.493Z,3.70
2022-07-29T16:17:39.202Z,4.00
2022-07-29T16:20:10.560Z,4.73
2022-07-29T16:22:45.069Z,3.70
2022-07-29T16:25:13.426Z,4.57
2022-07-29T16:27:41.718Z,3.30
2022-07-29T16:30:10.650Z,3.67
2022-07-29T16:32:39.995Z,3.33
2022-07-29T16:35:10.420Z,4.77
2022-07-29T16:37:39.179Z,4.27
2022-07-29T16:40:11.358Z,3.67
2022-07-29T16:42:47.859Z,4.03
2022-07-29T16:45:16.421Z,3.97
2022-07-29T16:47:46.449Z,3.40
2022-07-29T16:50:16.118Z,3.67
2022-07-29T16:52:44.420Z,3.40
2022-07-29T16:55:13.116Z,2.87
2022-07-29T16:57:42.662Z,3.70
2022-07-29T17:00:12.555Z,4.00
2022-07-29T17:02:41.145Z,4.10
2022-07-29T17:05:10.602Z,4.37
2022-07-29T17:07:40.431Z,3.00
2022-07-29T17:10:09.111Z,3.60
2022-07-29T17:12:37.692Z,3.80
2022-07-29T17:15:06.437Z,3.73
2022-07-29T17:17:38.589Z,3.37
2022-07-29T17:20:23.448Z,3.40
2022-07-29T17:22:53.218Z,4.17
2022-07-29T17:25:22.220Z,5.73
2022-07-29T17:27:50.761Z,4.00
2022-07-29T17:30:19.136Z,4.17
2022-07-29T17:32:47.445Z,3.80
2022-07-29T17:35:33.410Z,3.80
2022-07-29T17:38:03.102Z,3.50
2022-07-29T17:40:33.400Z,3.50
2022-07-29T17:43:01.687Z,3.73
2022-07-29T17:45:49.901Z,3.50
2022-07-29T17:48:18.253Z,2.70
2022-07-29T17:50:47.314Z,3.43
2022-07-29T17:53:17.038Z,3.83
2022-07-29T17:55:46.169Z,4.13
2022-07-29T17:58:14.495Z,3.43
2022-07-29T18:00:43.099Z,3.43
2022-07-29T18:03:11.811Z,3.50
2022-07-29T18:05:40.152Z,3.50
2022-07-29T18:08:08.447Z,3.47
2022-07-29T18:10:38.522Z,3.80
2022-07-29T18:13:06.809Z,3.67
2022-07-29T18:15:35.111Z,3.87
2022-07-29T18:18:03.415Z,3.80
2022-07-29T18:20:32.029Z,3.77
2022-07-29T18:23:00.336Z,3.53
2022-07-29T18:25:29.862Z,3.50
2022-07-29T18:28:00.693Z,3.50
2022-07-29T18:30:29.359Z,3.70
2022-07-29T18:33:19.620Z,3.97
2022-07-29T18:35:50.780Z,3.73
2022-07-29T18:38:19.214Z,3.43
2022-07-29T18:40:47.580Z,4.33
2022-07-29T18:43:17.280Z,3.70
2022-07-29T18:45:45.568Z,3.80
2022-07-29T18:48:13.931Z,3.50
2022-07-29T18:50:42.332Z,3.50
2022-07-29T18:53:10.751Z,3.97
2022-07-29T18:55:39.059Z,3.23
2022-07-29T18:58:07.363Z,3.17
2022-07-29T19:00:37.041Z,3.10
2022-07-29T19:03:05.497Z,4.27
2022-07-29T19:05:33.957Z,3.93
2022-07-29T19:08:02.331Z,3.43
2022-07-29T19:10:30.866Z,3.60
2022-07-29T19:12:59.283Z,3.70
2022-07-29T19:15:27.719Z,3.57
2022-07-29T19:18:00.975Z,3.20
2022-07-29T19:20:29.805Z,3.30
2022-07-29T19:22:58.516Z,3.20
2022-07-29T19:25:26.997Z,3.40
2022-07-29T19:27:56.378Z,3.50
2022-07-29T19:30:24.728Z,3.37
2022-07-29T19:32:53.048Z,2.80
2022-07-29T19:35:31.223Z,3.90
2022-07-29T19:38:00.287Z,3.97
2022-07-29T19:40:31.000Z,3.90
2022-07-29T19:43:00.606Z,3.90
2022-07-29T19:45:29.132Z,3.80
2022-07-29T19:48:03.900Z,4.37
2022-07-29T19:50:34.016Z,3.60
2022-07-29T19:53:02.652Z,3.80
2022-07-29T19:55:31.103Z,3.53
2022-07-29T19:57:59.746Z,3.80
2022-07-29T20:00:28.549Z,3.60
2022-07-29T20:02:58.502Z,3.67
2022-07-29T20:05:28.411Z,4.20
2022-07-29T20:07:58.576Z,3.60
2022-07-29T20:10:26.980Z,3.77
2022-07-29T20:12:55.729Z,3.30
2022-07-29T20:15:24.176Z,3.33
2022-07-29T20:17:56.965Z,3.90
2022-07-29T20:20:25.658Z,4.77
2022-07-29T20:22:54.017Z,3.90
2022-07-29T20:25:23.783Z,4.33
2022-07-29T20:27:53.212Z,3.90
2022-07-29T20:30:21.556Z,4.03
2022-07-29T20:32:49.972Z,4.63
2022-07-29T20:35:19.977Z,4.53
2022-07-29T20:37:52.233Z,6.40
2022-07-29T20:40:26.315Z,6.67
2022-07-29T20:42:54.664Z,7.27
2022-07-29T20:45:23.481Z,5.90
2022-07-29T20:47:52.655Z,5.40
2022-07-29T20:50:23.753Z,5.60
2022-07-29T20:52:53.037Z,6.07
2022-07-29T20:55:21.623Z,5.83
2022-07-29T20:57:51.492Z,5.50
2022-07-29T21:00:19.894Z,6.43
2022-07-29T21:02:48.393Z,6.03
2022-07-29T21:05:17.155Z,6.10
2022-07-29T21:07:45.451Z,5.40
2022-07-29T21:10:14.281Z,5.80
2022-07-29T21:12:43.009Z,7.47
2022-07-29T21:15:13.766Z,6.97
2022-07-29T21:17:46.780Z,7.63
2022-07-29T21:20:15.520Z,7.03
2022-07-29T21:22:44.026Z,7.10
2022-07-29T21:25:12.892Z,6.93
2022-07-29T21:27:59.799Z,7.30
2022-07-29T21:30:29.456Z,6.63
2022-07-29T21:32:57.880Z,5.90
2022-07-29T21:35:58.898Z,5.33
2022-07-29T21:38:16.291Z,5.57
2022-07-29T21:40:44.589Z,5.30
2022-07-29T21:43:12.862Z,4.80
2022-07-29T21:45:42.732Z,5.40
2022-07-29T21:48:10.999Z,3.53
2022-07-29T21:50:39.337Z,4.10
2022-07-29T21:53:07.595Z,5.30
2022-07-29T21:55:39.399Z,4.73
2022-07-29T21:58:07.979Z,4.43
2022-07-29T22:00:36.707Z,4.67
2022-07-29T22:03:07.110Z,5.17
2022-07-29T22:05:35.632Z,4.57
2022-07-29T22:08:04.059Z,4.80
2022-07-29T22:10:33.463Z,5.30
2022-07-29T22:13:02.271Z,4.80
2022-07-29T22:15:31.222Z,4.93
2022-07-29T22:17:59.551Z,6.33
2022-07-29T22:20:29.482Z,6.40
2022-07-29T22:22:57.736Z,6.67
2022-07-29T22:25:26.022Z,7.93
2022-07-29T22:27:54.311Z,5.87
2022-07-29T22:30:22.613Z,6.93
2022-07-29T22:32:50.881Z,6.37
2022-07-29T22:35:19.330Z,6.30
2022-07-29T22:37:49.034Z,5.90
2022-07-29T22:40:17.304Z,5.67
2022-07-29T22:42:45.624Z,6.33
2022-07-29T22:45:13.951Z,5.60
2022-07-29T22:47:48.119Z,6.30
2022-07-29T22:50:16.918Z,5.73
2022-07-29T22:52:45.201Z,5.93
2022-07-29T22:55:14.949Z,6.13
2022-07-29T22:57:43.335Z,6.10
2022-07-29T23:00:12.360Z,5.67
2022-07-29T23:02:41.388Z,5.40
2022-07-29T23:05:10.306Z,5.70
2022-07-29T23:07:38.699Z,6.37
2022-07-29T23:10:07.577Z,6.40
2022-07-29T23:12:37.249Z,8.00
2022-07-29T23:15:05.823Z,5.97
2022-07-29T23:17:36.330Z,6.23
2022-07-29T23:20:05.583Z,6.57
2022-07-29T23:22:33.889Z,5.40
2022-07-29T23:25:02.154Z,7.00
2022-07-29T23:27:30.462Z,7.17
2022-07-29T23:30:00.233Z,5.80
2022-07-29T23:32:28.564Z,6.60
2022-07-29T23:34:56.854Z,6.10
2022-07-29T23:37:26.850Z,6.43
2022-07-29T23:39:55.382Z,6.50
2022-07-29T23:42:23.896Z,6.37
2022-07-29T23:44:52.221Z,5.93
2022-07-29T23:47:21.855Z,5.60
2022-07-29T23:49:50.260Z,7.00
2022-07-29T23:52:18.877Z,6.87
2022-07-29T23:54:47.287Z,6.60
2022-07-29T23:57:15.551Z,6.73
2022-07-29T23:59:43.949Z,6.43
